Time;durP1;ratioP1;P1;durP2;ratioP2;P2;SDS_P1;SDS_P2;PMS_P1;PMS_P2;Temp;Humidity;BMP_temperature;BMP_pressure;BME280_temperature;BME280_humidity;BME280_pressure;Samples;Min_cycle;Max_cycle;Signal;HPM_P1;HPM_P2
2020/12/04 00:02:15;;;;;;;47.45;24.10;;;;;;;3.19;66.12;101919.52;1762991;81;21338;-61
2020/12/04 00:05:21;;;;;;;56.23;26.20;;;;;;;3.20;65.99;101911.30;1762537;81;21244;-60
2020/12/04 00:08:27;;;;;;;49.20;23.70;;;;;;;3.20;65.98;101922.13;1767938;81;21165;-61
2020/12/04 00:11:35;;;;;;;46.90;23.70;;;;;;;3.23;65.85;101931.41;1767912;81;21354;-59
2020/12/04 00:14:40;;;;;;;54.23;24.10;;;;;;;3.23;65.77;101940.88;1768304;81;21353;-61
2020/12/04 00:17:46;;;;;;;51.28;24.77;;;;;;;3.21;65.61;101938.73;1768609;80;21346;-58
2020/12/04 00:20:51;;;;;;;48.60;24.27;;;;;;;3.17;65.75;101933.13;1767844;81;21326;-59
2020/12/04 00:23:56;;;;;;;47.93;24.60;;;;;;;3.15;65.59;101936.41;1767898;81;21463;-60
2020/12/04 00:27:05;;;;;;;48.60;24.35;;;;;;;2.95;65.78;101933.98;1767698;81;21363;-60
2020/12/04 00:30:11;;;;;;;46.48;24.35;;;;;;;2.92;66.08;101935.04;1768082;81;21336;-60
2020/12/04 00:33:16;;;;;;;47.40;24.27;;;;;;;2.85;66.37;101934.14;1768002;81;21362;-60
2020/12/04 00:36:22;;;;;;;50.35;25.82;;;;;;;2.88;66.48;101929.91;1767994;81;21228;-61
2020/12/04 00:39:27;;;;;;;58.78;25.15;;;;;;;2.86;66.43;101925.06;1768054;81;21184;-60
2020/12/04 00:42:32;;;;;;;50.15;24.18;;;;;;;2.89;66.49;101919.47;1768617;78;21307;-60
2020/12/04 00:45:38;;;;;;;46.92;23.70;;;;;;;2.90;66.64;101922.58;1773130;81;21362;-60
2020/12/04 00:48:44;;;;;;;46.77;24.20;;;;;;;2.91;66.56;101921.61;1773260;80;21375;-60
2020/12/04 00:51:49;;;;;;;50.12;24.60;;;;;;;2.95;66.49;101917.75;1773346;80;21347;-59
2020/12/04 00:54:54;;;;;;;46.30;23.90;;;;;;;2.98;66.35;101929.27;1773242;80;21370;-59
2020/12/04 00:58:00;;;;;;;48.85;23.07;;;;;;;3.01;66.37;101912.00;1773145;80;21394;-60
2020/12/04 01:01:07;;;;;;;44.15;23.00;;;;;;;3.01;66.14;101925.53;1773139;81;21241;-59
2020/12/04 01:04:13;;;;;;;45.73;22.65;;;;;;;3.00;66.20;101923.77;1773382;80;21339;-59
2020/12/04 01:07:19;;;;;;;40.33;23.12;;;;;;;3.00;66.10;101931.41;1755270;80;21176;-60
2020/12/04 01:10:25;;;;;;;40.85;22.05;;;;;;;3.03;66.04;101912.76;1731600;83;21192;-59
2020/12/04 01:13:30;;;;;;;44.35;23.20;;;;;;;3.07;65.92;101918.40;1721453;83;21289;-59
2020/12/04 01:16:36;;;;;;;44.70;23.07;;;;;;;3.08;65.85;101924.19;1732111;82;21267;-59
2020/12/04 01:19:42;;;;;;;56.18;23.50;;;;;;;3.14;65.70;101916.20;1733472;82;21326;-61
2020/12/04 01:22:47;;;;;;;45.95;23.67;;;;;;;3.17;65.57;101929.55;1731868;83;21358;-60
2020/12/04 01:25:53;;;;;;;42.00;22.45;;;;;;;3.15;65.44;101913.88;1734244;82;21346;-59
2020/12/04 01:29:00;;;;;;;41.60;21.15;;;;;;;3.10;65.44;101912.80;1732244;82;21381;-59
2020/12/04 01:32:06;;;;;;;43.63;21.48;;;;;;;3.08;65.35;101918.30;1721170;83;21243;-59
2020/12/04 01:35:13;;;;;;;39.63;21.25;;;;;;;3.00;65.47;101917.88;1732364;82;21352;-59
2020/12/04 01:38:19;;;;;;;42.53;23.05;;;;;;;2.98;65.57;101889.20;1732427;82;21339;-59
2020/12/04 01:41:24;;;;;;;42.58;21.33;;;;;;;2.95;65.60;101894.29;1732321;82;21416;-59
2020/12/04 01:44:29;;;;;;;42.08;22.62;;;;;;;2.93;65.76;101894.00;1733078;79;21863;-59
2020/12/04 01:47:34;;;;;;;39.05;20.77;;;;;;;2.94;65.79;101902.50;1731826;83;21219;-59
2020/12/04 01:50:41;;;;;;;37.33;20.95;;;;;;;2.96;65.71;101908.70;1731656;83;21350;-59
2020/12/04 01:53:47;;;;;;;35.78;20.45;;;;;;;2.95;65.73;101909.16;1731592;83;21350;-59
2020/12/04 01:56:53;;;;;;;41.15;21.73;;;;;;;2.98;65.74;101893.25;1732234;82;21393;-59
2020/12/04 01:59:59;;;;;;;42.48;21.52;;;;;;;3.02;65.77;101901.09;1731891;83;21318;-59
2020/12/04 02:03:06;;;;;;;39.08;20.82;;;;;;;3.06;65.58;101907.16;1732116;82;21180;-59
2020/12/04 02:06:12;;;;;;;39.45;22.27;;;;;;;3.06;65.62;101905.34;1732403;82;21827;-59
2020/12/04 02:09:23;;;;;;;42.15;23.70;;;;;;;2.97;65.58;101896.90;1732086;82;21362;-59
2020/12/04 02:12:28;;;;;;;45.35;24.27;;;;;;;2.87;65.84;101905.19;1732060;82;21346;-59
2020/12/04 02:15:34;;;;;;;40.03;22.45;;;;;;;2.88;65.91;101902.39;1731606;83;21362;-59
2020/12/04 02:18:39;;;;;;;42.55;23.67;;;;;;;2.92;65.87;101891.77;1732251;82;21490;-59
2020/12/04 02:21:46;;;;;;;43.83;22.17;;;;;;;2.92;65.89;101899.00;1731787;83;21240;-59
2020/12/04 02:24:51;;;;;;;41.75;22.15;;;;;;;2.92;65.86;101888.18;1732004;83;21314;-61
2020/12/04 02:27:57;;;;;;;40.55;22.17;;;;;;;2.82;65.79;101891.06;1721407;83;21188;-59
2020/12/04 02:31:02;;;;;;;39.45;22.48;;;;;;;2.82;66.14;101892.41;1732449;82;21255;-59
2020/12/04 02:34:08;;;;;;;40.70;22.00;;;;;;;2.89;66.13;101884.31;1721256;83;21599;-59
2020/12/04 02:37:14;;;;;;;37.35;21.75;;;;;;;2.95;66.08;101879.88;1731994;83;21338;-59
2020/12/04 02:40:20;;;;;;;38.80;21.23;;;;;;;2.99;65.91;101889.58;1732023;83;21346;-59
2020/12/04 02:43:26;;;;;;;40.17;21.10;;;;;;;2.94;65.64;101886.27;1731715;83;21393;-59
2020/12/04 02:46:32;;;;;;;40.85;22.45;;;;;;;2.90;65.72;101881.52;1734021;79;21378;-58
2020/12/04 02:49:37;;;;;;;35.15;20.68;;;;;;;2.81;65.67;101878.48;1732213;82;21331;-59
2020/12/04 02:52:44;;;;;;;35.45;20.27;;;;;;;2.75;65.88;101877.49;1731794;83;21172;-59
2020/12/04 02:55:49;;;;;;;32.75;18.75;;;;;;;2.80;65.93;101890.27;1732078;83;21432;-59
2020/12/04 02:58:56;;;;;;;37.40;20.35;;;;;;;2.84;65.83;101879.64;1732047;82;21331;-59
2020/12/04 03:02:02;;;;;;;33.15;19.27;;;;;;;2.86;65.73;101882.67;1732101;83;21320;-59
2020/12/04 03:05:08;;;;;;;30.92;18.55;;;;;;;2.86;65.65;101880.44;1732275;82;21275;-59
2020/12/04 03:08:14;;;;;;;33.67;19.35;;;;;;;2.90;65.60;101886.07;1739293;82;21197;-59
2020/12/04 03:11:21;;;;;;;32.15;18.02;;;;;;;2.87;65.44;101884.91;1740946;82;21308;-59
2020/12/04 03:14:26;;;;;;;31.85;19.25;;;;;;;2.86;65.34;101892.14;1740749;82;21272;-59
2020/12/04 03:17:32;;;;;;;34.50;19.52;;;;;;;2.83;65.15;101886.91;1741047;82;21240;-59
2020/12/04 03:20:38;;;;;;;39.18;19.80;;;;;;;2.75;65.15;101887.84;1740975;82;21256;-59
2020/12/04 03:23:43;;;;;;;34.33;19.05;;;;;;;2.61;64.95;101891.83;1741388;82;21371;-60
2020/12/04 03:26:49;;;;;;;29.40;16.95;;;;;;;2.48;65.35;101889.43;1741021;82;21462;-59
2020/12/04 03:29:54;;;;;;;31.27;17.65;;;;;;;2.39;65.47;101885.91;1741078;82;21192;-58
2020/12/04 03:33:00;;;;;;;30.92;18.27;;;;;;;2.32;65.74;101880.45;1741450;82;21283;-60
2020/12/04 03:36:06;;;;;;;32.15;19.05;;;;;;;2.28;66.08;101891.52;1740849;82;21205;-60
2020/12/04 03:39:12;;;;;;;31.52;18.00;;;;;;;2.36;66.07;101896.02;1740997;82;21196;-59
2020/12/04 03:42:18;;;;;;;31.40;18.27;;;;;;;2.43;65.99;101891.98;1740872;82;21303;-59
2020/12/04 03:45:24;;;;;;;29.05;17.05;;;;;;;2.47;65.79;101898.98;1741145;82;21305;-59
2020/12/04 03:48:29;;;;;;;35.30;19.35;;;;;;;2.50;65.88;101903.73;1740270;81;21224;-59
2020/12/04 03:51:35;;;;;;;31.02;17.50;;;;;;;2.56;65.69;101912.84;1741119;82;21323;-58
2020/12/04 03:54:40;;;;;;;33.98;19.25;;;;;;;2.60;65.71;101911.69;1740946;82;21323;-58
2020/12/04 03:57:46;;;;;;;29.82;18.60;;;;;;;2.64;65.33;101921.38;1741469;82;21236;-61
2020/12/04 04:00:52;;;;;;;31.10;17.80;;;;;;;2.65;65.30;101918.17;1740567;82;21220;-57
2020/12/04 04:03:59;;;;;;;34.05;18.77;;;;;;;2.67;64.98;101916.27;1740519;82;21224;-57
2020/12/04 04:07:05;;;;;;;34.65;19.15;;;;;;;2.65;64.95;101914.13;1749206;81;21382;-56
2020/12/04 04:10:12;;;;;;;32.55;18.45;;;;;;;2.65;65.03;101909.59;1763479;81;21200;-56
2020/12/04 04:13:18;;;;;;;30.10;17.37;;;;;;;2.73;65.01;101904.63;1763168;81;21308;-55
2020/12/04 04:16:23;;;;;;;31.85;18.32;;;;;;;2.82;64.74;101904.58;1762560;81;21189;-56
2020/12/04 04:19:28;;;;;;;31.65;17.40;;;;;;;2.87;64.51;101906.03;1762884;81;21160;-56
2020/12/04 04:22:33;;;;;;;33.25;18.50;;;;;;;2.91;64.17;101903.56;1762518;81;21912;-56
2020/12/04 04:25:39;;;;;;;30.27;18.40;;;;;;;2.86;63.86;101904.30;1762577;81;21401;-56
2020/12/04 04:28:45;;;;;;;33.53;17.67;;;;;;;2.76;63.93;101900.38;1763248;81;21168;-56
2020/12/04 04:31:50;;;;;;;32.63;16.65;;;;;;;2.76;63.99;101906.27;1763178;81;21240;-57
2020/12/04 04:34:55;;;;;;;31.23;17.60;;;;;;;2.76;63.80;101911.20;1763318;81;21326;-57
2020/12/04 04:38:02;;;;;;;30.52;16.97;;;;;;;2.72;63.86;101906.95;1763342;81;21423;-56
2020/12/04 04:41:07;;;;;;;33.53;18.42;;;;;;;2.74;63.88;101906.86;1763239;81;21343;-55
2020/12/04 04:44:13;;;;;;;32.30;17.62;;;;;;;2.76;63.80;101911.67;1763501;81;21315;-55
2020/12/04 04:47:22;;;;;;;27.07;16.48;;;;;;;2.75;63.79;101912.64;1763137;81;21184;-56
2020/12/04 04:50:29;;;;;;;30.45;17.77;;;;;;;2.75;63.68;101922.98;1729269;82;21359;-56
2020/12/04 04:53:35;;;;;;;33.67;16.87;;;;;;;2.75;63.61;101924.34;1728423;82;21817;-56
2020/12/04 04:56:42;;;;;;;30.82;17.25;;;;;;;2.76;63.54;101923.84;1728440;82;21398;-56
2020/12/04 04:59:49;;;;;;;31.55;17.27;;;;;;;2.74;63.54;101933.89;1728052;82;21325;-56
2020/12/04 05:02:55;;;;;;;31.50;17.35;;;;;;;2.68;63.60;101934.25;1728195;82;21205;-56
2020/12/04 05:06:00;;;;;;;28.67;17.25;;;;;;;2.67;63.75;101934.72;1727976;83;21406;-56
2020/12/04 05:09:07;;;;;;;32.25;16.73;;;;;;;2.66;63.67;101938.87;1706727;84;21240;-56
2020/12/04 05:12:14;;;;;;;30.77;16.77;;;;;;;2.63;63.59;101934.99;1706784;84;21247;-57
2020/12/04 05:15:34;;;;;;;29.85;17.25;;;;;;;2.51;63.73;101947.83;1706619;84;21311;-57
2020/12/04 05:18:40;;;;;;;35.83;18.70;;;;;;;2.40;63.99;101954.32;1706801;84;21268;-57
2020/12/04 05:21:45;;;;;;;33.33;18.27;;;;;;;2.45;64.30;101960.34;1706749;84;21409;-56
2020/12/04 05:24:53;;;;;;;30.62;17.48;;;;;;;2.57;64.46;101967.78;1706837;84;21224;-56
2020/12/04 05:27:59;;;;;;;30.80;17.12;;;;;;;2.69;64.43;101967.08;1706893;84;21327;-56
2020/12/04 05:31:18;;;;;;;31.87;17.45;;;;;;;2.76;64.09;101971.16;1706740;84;21238;-56
2020/12/04 05:34:29;;;;;;;33.63;18.05;;;;;;;2.70;64.05;101976.92;1706286;84;21208;-56
2020/12/04 05:37:35;;;;;;;28.75;16.52;;;;;;;2.64;64.14;101971.39;1706415;84;21244;-57
2020/12/04 05:40:42;;;;;;;37.13;18.73;;;;;;;2.70;64.25;101960.23;1728642;82;21244;-57
2020/12/04 05:43:50;;;;;;;36.45;18.80;;;;;;;2.77;64.19;101959.41;1736444;82;21211;-56
2020/12/04 05:47:01;;;;;;;32.33;18.60;;;;;;;2.76;63.80;101967.98;1737419;82;21342;-56
2020/12/04 05:50:07;;;;;;;34.95;19.37;;;;;;;2.69;63.92;101971.12;1756274;80;21340;-56
2020/12/04 05:53:14;;;;;;;31.75;17.40;;;;;;;2.67;63.94;101961.76;1771423;80;21185;-56
2020/12/04 05:56:20;;;;;;;35.23;18.07;;;;;;;2.71;63.95;101982.73;1770766;80;21844;-56
2020/12/04 05:59:29;;;;;;;34.70;19.45;;;;;;;2.70;63.98;101972.86;1760586;80;21296;-57
2020/12/04 06:02:34;;;;;;;34.63;19.92;;;;;;;2.73;63.94;101983.03;1769543;81;21192;-56
2020/12/04 06:05:44;;;;;;;31.77;18.12;;;;;;;2.71;63.79;101996.26;1768170;80;21707;-56
2020/12/04 06:08:54;;;;;;;36.15;19.48;;;;;;;2.67;63.87;101985.20;1770764;80;21892;-56
2020/12/04 06:12:07;;;;;;;46.42;28.05;;;;;;;2.66;63.84;101995.64;1770046;80;21407;-57
2020/12/04 06:15:32;;;;;;;35.52;21.05;;;;;;;2.69;64.12;101993.64;1767344;80;21278;-57
2020/12/04 06:18:41;;;;;;;41.88;24.50;;;;;;;2.81;64.04;101994.75;1760821;80;21213;-57
2020/12/04 06:21:54;;;;;;;48.78;26.57;;;;;;;2.92;63.87;101993.66;1744432;81;21224;-57
2020/12/04 06:25:07;;;;;;;34.88;19.48;;;;;;;2.99;63.69;101988.30;1704636;84;21248;-58
2020/12/04 06:28:20;;;;;;;36.60;20.85;;;;;;;3.01;63.35;101989.95;1679552;84;21738;-56
2020/12/04 06:31:40;;;;;;;34.85;19.23;;;;;;;2.96;63.20;101992.54;1691212;85;22076;-58
2020/12/04 06:34:48;;;;;;;32.30;17.98;;;;;;;2.90;63.23;101994.25;1663245;83;21214;-56
2020/12/04 06:37:57;;;;;;;38.33;18.62;;;;;;;2.93;63.14;101995.42;1668418;84;21228;-58
2020/12/04 06:41:26;;;;;;;36.25;18.65;;;;;;;2.84;63.14;102000.88;1691639;83;21337;-57
2020/12/04 06:44:37;;;;;;;31.20;17.57;;;;;;;2.85;63.25;102001.75;1705592;84;21259;-57
2020/12/04 06:47:46;;;;;;;36.03;19.12;;;;;;;2.91;63.12;101985.17;1704757;84;21578;-57
2020/12/04 06:51:01;;;;;;;31.27;17.98;;;;;;;2.92;63.18;101984.20;1692058;83;21240;-57
2020/12/04 06:54:08;;;;;;;32.98;17.77;;;;;;;3.00;63.15;101994.98;1767696;80;21205;-55
2020/12/04 06:57:17;;;;;;;38.13;20.90;;;;;;;3.05;62.99;101987.47;1753463;80;21283;-55
2020/12/04 07:00:23;;;;;;;34.55;19.27;;;;;;;3.01;62.88;101997.21;1771405;80;21356;-57
2020/12/04 07:03:29;;;;;;;35.95;19.77;;;;;;;3.00;62.81;102003.56;1769343;80;21205;-56
2020/12/04 07:06:37;;;;;;;39.65;20.27;;;;;;;2.88;62.84;102011.92;1770003;80;21209;-55
2020/12/04 07:09:46;;;;;;;33.35;17.95;;;;;;;2.88;63.07;102004.28;1764755;81;21857;-58
2020/12/04 07:12:53;;;;;;;41.13;20.12;;;;;;;2.94;62.93;102002.09;1764540;81;21248;-56
2020/12/04 07:15:58;;;;;;;36.58;20.40;;;;;;;2.95;63.05;101998.89;1763611;81;21399;-58
2020/12/04 07:19:03;;;;;;;35.70;19.32;;;;;;;3.05;62.86;101998.77;1739635;81;21328;-56
2020/12/04 07:22:09;;;;;;;40.30;22.07;;;;;;;3.11;62.54;102004.31;1771598;80;21205;-57
2020/12/04 07:25:23;;;;;;;37.13;19.37;;;;;;;3.02;62.61;101993.53;1769538;80;21173;-57
2020/12/04 07:28:33;;;;;;;32.08;18.27;;;;;;;3.02;62.60;102000.30;1775624;79;21347;-57
2020/12/04 07:31:38;;;;;;;34.70;19.45;;;;;;;3.02;62.91;102000.30;1770472;80;21366;-56
2020/12/04 07:34:44;;;;;;;32.95;18.85;;;;;;;3.14;62.74;102009.04;1735761;82;21310;-57
2020/12/04 07:37:52;;;;;;;36.23;20.27;;;;;;;3.24;62.64;102006.67;1770793;80;21774;-58
2020/12/04 07:40:58;;;;;;;38.67;20.00;;;;;;;3.36;62.60;102001.44;1762856;80;21425;-56
2020/12/04 07:44:10;;;;;;;38.83;21.07;;;;;;;3.50;62.13;102012.79;1771106;80;21355;-57
2020/12/04 07:47:23;;;;;;;34.43;19.45;;;;;;;3.50;61.81;102012.32;1753573;80;21406;-57
2020/12/04 07:50:31;;;;;;;32.10;19.92;;;;;;;3.53;61.75;102001.78;1743284;81;21351;-57
2020/12/04 07:53:49;;;;;;;34.08;19.35;;;;;;;3.61;61.68;102015.73;1740750;82;21844;-58
2020/12/04 07:57:04;;;;;;;34.03;18.45;;;;;;;3.71;61.44;102016.42;1740719;81;21217;-56
2020/12/04 08:00:20;;;;;;;35.50;19.82;;;;;;;3.71;61.19;102017.78;1770325;80;21355;-56
2020/12/04 08:03:28;;;;;;;34.53;18.80;;;;;;;3.73;61.21;102019.92;1769473;81;21411;-57
2020/12/04 08:06:37;;;;;;;36.73;20.20;;;;;;;3.74;60.96;102017.59;1770089;80;21243;-57
2020/12/04 08:09:50;;;;;;;31.45;18.40;;;;;;;3.68;60.88;102013.91;1762356;81;21312;-59
2020/12/04 08:12:59;;;;;;;33.83;19.00;;;;;;;3.65;60.86;102016.80;1762963;81;21701;-57
2020/12/04 08:16:06;;;;;;;33.75;18.90;;;;;;;3.60;60.87;102008.58;1767772;81;21201;-56
2020/12/04 08:19:14;;;;;;;32.23;18.02;;;;;;;3.65;60.77;102009.15;1768834;80;21737;-57
2020/12/04 08:22:21;;;;;;;32.40;17.35;;;;;;;3.57;60.79;102005.56;1766347;81;21256;-58
2020/12/04 08:25:38;;;;;;;32.25;18.73;;;;;;;3.62;61.24;102010.22;1765087;80;21338;-57
2020/12/04 08:28:44;;;;;;;34.40;19.48;;;;;;;3.72;61.13;102011.42;1766422;81;21300;-57
2020/12/04 08:31:51;;;;;;;30.15;18.52;;;;;;;3.79;61.00;102010.58;1770379;80;21280;-57
2020/12/04 08:34:59;;;;;;;39.18;23.15;;;;;;;3.90;61.07;102000.80;1770351;80;21315;-57
2020/12/04 08:38:23;;;;;;;32.58;18.60;;;;;;;4.03;60.75;102007.22;1770756;81;21442;-57
2020/12/04 08:41:45;;;;;;;27.32;15.58;;;;;;;4.15;60.77;102006.48;1756450;80;21189;-55
2020/12/04 08:45:15;;;;;;;29.63;17.73;;;;;;;4.20;60.42;102006.19;1761340;80;21300;-56
2020/12/04 08:48:26;;;;;;;31.20;16.73;;;;;;;4.24;60.06;102009.95;1767160;80;21217;-57
2020/12/04 08:51:33;;;;;;;30.48;16.55;;;;;;;4.17;59.41;102008.58;1754359;81;21236;-56
2020/12/04 08:54:41;;;;;;;29.25;17.07;;;;;;;4.02;59.41;102014.09;1769838;81;21200;-57
2020/12/04 08:57:47;;;;;;;29.50;16.60;;;;;;;3.99;59.67;102008.39;1768879;80;21205;-57
2020/12/04 09:00:54;;;;;;;26.40;16.70;;;;;;;3.97;59.70;101995.88;1746411;81;21216;-56
2020/12/04 09:03:59;;;;;;;26.45;14.95;;;;;;;4.05;59.69;102000.34;1769795;80;21169;-56
2020/12/04 09:07:05;;;;;;;28.85;15.65;;;;;;;4.10;59.44;102006.36;1767700;80;21193;-56
2020/12/04 09:10:10;;;;;;;30.70;16.62;;;;;;;4.02;59.64;102000.06;1761589;81;21337;-56
2020/12/04 09:13:18;;;;;;;26.15;15.28;;;;;;;4.05;59.52;102009.83;1762221;81;21350;-56
2020/12/04 09:16:25;;;;;;;36.03;19.85;;;;;;;3.95;59.43;102000.05;1762354;81;21244;-57
2020/12/04 09:19:31;;;;;;;28.87;17.15;;;;;;;3.88;59.61;102000.52;1762821;81;21354;-56
2020/12/04 09:22:36;;;;;;;29.12;16.32;;;;;;;3.85;59.71;102008.36;1769951;81;21387;-56
2020/12/04 09:25:41;;;;;;;31.93;16.27;;;;;;;3.91;59.95;102001.21;1762132;79;21278;-57
2020/12/04 09:28:48;;;;;;;25.23;14.85;;;;;;;3.99;60.05;101990.77;1757512;81;21374;-57
2020/12/04 09:31:54;;;;;;;27.20;16.00;;;;;;;4.10;59.91;101977.91;1757055;81;21703;-58
2020/12/04 09:35:00;;;;;;;28.80;15.58;;;;;;;4.21;59.63;101978.98;1756768;81;21349;-57
2020/12/04 09:38:06;;;;;;;33.13;16.80;;;;;;;4.32;59.74;101971.05;1757183;81;21346;-57
2020/12/04 09:41:11;;;;;;;23.47;14.58;;;;;;;4.46;59.43;101976.45;1756332;81;21767;-59
2020/12/04 09:44:17;;;;;;;31.25;16.75;;;;;;;4.47;58.97;101975.47;1756802;81;21381;-59
2020/12/04 09:47:23;;;;;;;34.90;15.85;;;;;;;4.49;59.02;101974.89;1756439;81;21256;-59
2020/12/04 09:50:28;;;;;;;33.60;17.87;;;;;;;4.55;58.85;101979.07;1765622;81;21339;-57
2020/12/04 09:53:33;;;;;;;28.62;16.30;;;;;;;4.59;58.98;101980.13;1771170;79;21241;-56
2020/12/04 09:56:40;;;;;;;28.70;16.70;;;;;;;4.70;58.86;101965.86;1740671;82;21232;-57
2020/12/04 09:59:45;;;;;;;30.77;17.30;;;;;;;4.71;58.62;101972.16;1739701;82;21251;-57
2020/12/04 10:02:50;;;;;;;32.48;18.50;;;;;;;4.81;58.62;101966.50;1739359;82;21617;-58
2020/12/04 10:05:56;;;;;;;27.35;15.35;;;;;;;4.94;58.52;101967.44;1747546;81;21785;-57
2020/12/04 10:09:02;;;;;;;32.08;16.87;;;;;;;4.99;58.10;101959.88;1770741;80;21438;-57
2020/12/04 10:12:08;;;;;;;29.45;16.27;;;;;;;4.89;58.07;101970.94;1770941;81;21196;-57
2020/12/04 10:15:14;;;;;;;27.32;16.37;;;;;;;4.83;58.24;101964.56;1771043;81;21177;-57
2020/12/04 10:18:19;;;;;;;27.40;15.38;;;;;;;4.78;58.54;101972.13;1769981;81;21223;-57
2020/12/04 10:21:25;;;;;;;32.00;15.72;;;;;;;4.81;58.77;101961.08;1771011;80;21343;-56
2020/12/04 10:24:34;;;;;;;33.38;17.82;;;;;;;4.83;58.75;101967.28;1766818;80;21403;-57
2020/12/04 10:27:40;;;;;;;30.12;16.85;;;;;;;4.81;58.66;101963.31;1744003;81;21212;-57
2020/12/04 10:30:47;;;;;;;32.83;17.82;;;;;;;4.84;58.75;101961.75;1753964;81;21174;-57
2020/12/04 10:33:53;;;;;;;30.62;17.52;;;;;;;4.80;58.46;101962.06;1692516;84;21231;-57
2020/12/04 10:36:59;;;;;;;30.08;16.37;;;;;;;4.74;58.79;101966.03;1705217;84;22065;-57
2020/12/04 10:40:05;;;;;;;28.40;16.35;;;;;;;4.70;58.91;101962.27;1692361;85;21210;-57
2020/12/04 10:43:09;;;;;;;25.23;15.40;;;;;;;4.73;59.05;101955.28;1692530;85;21330;-56
2020/12/04 10:46:15;;;;;;;31.95;16.37;;;;;;;4.73;59.19;101953.45;1692194;84;21237;-56
2020/12/04 10:49:21;;;;;;;32.45;17.57;;;;;;;4.79;59.02;101946.77;1741697;81;21216;-55
2020/12/04 10:52:28;;;;;;;30.37;16.67;;;;;;;4.59;58.68;101949.41;1771538;80;21395;-52
2020/12/04 10:55:40;;;;;;;33.63;17.73;;;;;;;4.40;58.88;101964.66;1751727;80;21400;-52
2020/12/04 10:58:51;;;;;;;29.42;15.88;;;;;;;4.41;59.22;101969.56;1758258;81;21224;-51
2020/12/04 11:02:02;;;;;;;30.30;16.25;;;;;;;4.46;59.05;101960.19;1738676;82;21198;-53
2020/12/04 11:08:27;;;;;;;43.50;23.47;;;;;;;4.40;59.19;101970.08;1762487;81;21181;-53
2020/12/04 11:11:34;;;;;;;32.83;18.02;;;;;;;4.37;59.36;101972.98;1769452;80;21233;-54
2020/12/04 11:14:43;;;;;;;28.45;16.40;;;;;;;4.38;59.45;101981.49;1765997;81;21212;-54
2020/12/04 11:17:52;;;;;;;29.23;16.12;;;;;;;4.34;59.30;101983.98;1763313;81;21695;-55
2020/12/04 11:20:57;;;;;;;27.07;16.23;;;;;;;4.26;59.50;101976.86;1769563;80;21260;-54
2020/12/04 11:24:04;;;;;;;40.78;19.55;;;;;;;4.25;59.74;101977.80;1770055;80;21199;-53
2020/12/04 11:27:13;;;;;;;29.63;14.98;;;;;;;4.38;59.99;101984.20;1770941;80;21880;-54
2020/12/04 11:30:19;;;;;;;32.78;16.07;;;;;;;4.48;59.58;101988.55;1768773;79;21217;-53
2020/12/04 11:33:24;;;;;;;27.42;15.55;;;;;;;4.59;59.48;101991.45;1746842;81;21240;-59
2020/12/04 11:36:31;;;;;;;38.30;17.57;;;;;;;4.63;59.10;101991.14;1764745;81;21209;-59
2020/12/04 11:39:39;;;;;;;26.30;15.78;;;;;;;4.53;58.78;101969.64;1769913;81;21510;-59
2020/12/04 11:42:49;;;;;;;26.37;14.50;;;;;;;4.48;59.12;101962.80;1760254;80;21193;-58
2020/12/04 11:45:55;;;;;;;29.45;15.85;;;;;;;4.42;59.17;101947.78;1768632;80;21602;-58
2020/12/04 11:49:01;;;;;;;27.90;14.55;;;;;;;4.30;59.32;101958.53;1764416;80;21714;-58
2020/12/04 11:52:11;;;;;;;30.92;17.32;;;;;;;4.21;59.73;101947.81;1759790;80;21353;-59
2020/12/04 11:55:17;;;;;;;30.57;17.80;;;;;;;4.19;59.79;101955.64;1769540;80;21614;-59
2020/12/04 11:58:24;;;;;;;30.43;16.57;;;;;;;4.14;60.01;101957.76;1748277;81;21208;-60
2020/12/04 12:01:31;;;;;;;27.58;15.35;;;;;;;4.13;60.17;101951.49;1721891;83;21670;-59
2020/12/04 12:04:37;;;;;;;29.27;14.95;;;;;;;4.11;60.53;101951.19;1683401;84;21351;-59
2020/12/04 12:07:48;;;;;;;32.58;17.40;;;;;;;4.09;60.49;101954.50;1700199;84;21225;-60
2020/12/04 12:10:58;;;;;;;32.80;16.35;;;;;;;3.98;60.57;101976.81;1732565;81;21402;-60
2020/12/04 12:14:08;;;;;;;33.02;16.07;;;;;;;4.00;60.61;101968.13;1730258;82;21359;-61
2020/12/04 12:17:15;;;;;;;34.23;15.72;;;;;;;3.95;60.73;101964.82;1767747;80;21811;-61
2020/12/04 12:20:23;;;;;;;26.97;15.25;;;;;;;3.95;60.83;101974.78;1723079;82;21318;-59
2020/12/04 12:23:32;;;;;;;31.48;17.23;;;;;;;3.95;60.78;101980.20;1756388;81;21254;-58
2020/12/04 12:26:44;;;;;;;28.12;16.10;;;;;;;3.83;60.89;101983.20;1742819;81;21370;-60
2020/12/04 12:29:50;;;;;;;31.52;16.00;;;;;;;3.82;61.15;101984.66;1725962;82;21193;-59
2020/12/04 12:33:03;;;;;;;30.55;15.08;;;;;;;3.89;61.23;101986.88;1751777;81;21168;-59
2020/12/04 12:36:09;;;;;;;30.55;16.62;;;;;;;3.88;61.25;101990.56;1749524;81;21401;-58
2020/12/04 12:39:16;;;;;;;31.75;17.45;;;;;;;3.82;61.12;101988.72;1752638;81;21263;-59
2020/12/04 12:42:24;;;;;;;34.60;16.85;;;;;;;3.70;61.26;101993.50;1736296;81;21545;-60
2020/12/04 12:45:30;;;;;;;33.45;17.57;;;;;;;3.63;61.58;102003.83;1736572;81;21895;-58
2020/12/04 12:48:41;;;;;;;32.08;16.87;;;;;;;3.57;61.66;102004.20;1750706;81;21227;-62
2020/12/04 12:51:50;;;;;;;30.92;16.20;;;;;;;3.58;61.85;102005.09;1752733;81;21309;-58
2020/12/04 12:54:55;;;;;;;39.15;19.15;;;;;;;3.60;61.92;102012.14;1751629;81;21248;-57
2020/12/04 12:58:04;;;;;;;32.40;17.75;;;;;;;3.65;62.10;102010.50;1727541;80;21737;-57
2020/12/04 13:01:11;;;;;;;25.97;14.35;;;;;;;3.63;62.11;102005.19;1767113;80;21905;-58
2020/12/04 13:04:20;;;;;;;29.48;16.75;;;;;;;3.62;62.09;102010.69;1763854;80;21347;-59
2020/12/04 13:07:23;;;;;;;34.25;17.60;;;;;;;3.65;62.19;102019.98;1758251;81;21141;-59
2020/12/04 13:10:35;;;;;;;39.53;19.52;;;;;;;3.70;62.11;102020.58;1755450;80;21212;-58
2020/12/04 13:13:41;;;;;;;41.95;21.45;;;;;;;3.71;62.06;102021.84;1713695;82;21458;-64
2020/12/04 13:16:53;;;;;;;31.48;16.73;;;;;;;3.59;61.99;102027.13;1768845;81;21232;-60
2020/12/04 13:20:00;;;;;;;30.27;15.10;;;;;;;3.40;62.29;102017.00;1772125;80;21365;-60
2020/12/04 13:23:17;;;;;;;29.63;15.88;;;;;;;3.33;62.67;102014.28;1772520;80;21355;-63
2020/12/04 13:26:39;;;;;;;30.00;15.38;;;;;;;3.31;62.71;102014.84;1771987;80;21303;-61
2020/12/04 13:29:47;;;;;;;31.95;17.10;;;;;;;3.23;62.90;102023.41;1771825;80;21690;-60
2020/12/04 13:32:54;;;;;;;31.87;18.45;;;;;;;3.21;63.14;102015.86;1770996;80;21339;-61
2020/12/04 13:36:04;;;;;;;38.25;22.55;;;;;;;3.17;63.36;102021.07;1753973;80;21344;-60
2020/12/04 13:39:12;;;;;;;45.15;26.10;;;;;;;3.20;63.57;102015.48;1748496;80;21418;-62
2020/12/04 13:42:20;;;;;;;34.80;18.95;;;;;;;3.24;63.66;102012.97;1770421;80;21224;-60
2020/12/04 13:45:40;;;;;;;34.67;18.15;;;;;;;3.27;63.73;102020.91;1765839;81;21386;-62
2020/12/04 13:48:48;;;;;;;37.40;17.65;;;;;;;3.30;63.54;102022.58;1771810;80;21193;-60
2020/12/04 13:51:55;;;;;;;32.58;17.00;;;;;;;3.26;63.71;102011.05;1765480;80;21377;-60
2020/12/04 13:55:08;;;;;;;32.88;17.17;;;;;;;3.27;63.76;102019.55;1736565;80;21240;-60
2020/12/04 13:58:14;;;;;;;34.10;17.60;;;;;;;3.30;63.70;102012.60;1760099;80;21247;-61
2020/12/04 14:01:20;;;;;;;30.82;15.43;;;;;;;3.31;63.54;102022.48;1764411;80;21754;-60
2020/12/04 14:04:25;;;;;;;32.45;17.30;;;;;;;3.31;63.57;102027.90;1760641;80;21190;-59
2020/12/04 14:07:32;;;;;;;44.35;25.40;;;;;;;3.26;63.53;102034.05;1754398;80;21789;-60
2020/12/04 14:10:37;;;;;;;31.07;17.67;;;;;;;3.21;63.77;102037.50;1750684;81;21198;-60
2020/12/04 14:13:42;;;;;;;30.90;15.60;;;;;;;3.24;63.93;102037.32;1746770;81;21756;-61
2020/12/04 14:16:47;;;;;;;27.50;15.55;;;;;;;3.26;63.72;102034.05;1741998;81;21314;-61
2020/12/04 14:19:53;;;;;;;28.02;15.05;;;;;;;3.22;63.81;102030.27;1768404;80;21161;-60
2020/12/04 14:22:59;;;;;;;30.65;15.58;;;;;;;3.16;63.88;102026.53;1769232;80;21200;-61
2020/12/04 14:26:05;;;;;;;29.12;16.50;;;;;;;3.05;64.17;102039.34;1770203;81;21225;-59